createdAt,value
2022-07-25T00:00:14.162Z,98635.50
2022-07-25T00:03:10.820Z,98633.64
2022-07-25T00:05:43.484Z,98630.41
2022-07-25T00:08:15.593Z,98631.29
2022-07-25T00:10:48.973Z,98628.75
2022-07-25T00:13:21.262Z,98629.82
2022-07-25T00:15:56.260Z,98628.48
2022-07-25T00:18:29.469Z,98625.77
2022-07-25T00:21:01.804Z,98627.64
2022-07-25T00:23:36.224Z,98625.50
2022-07-25T00:26:08.779Z,98622.58
2022-07-25T00:28:41.174Z,98619.53
2022-07-25T00:31:13.470Z,98620.00
2022-07-25T00:33:46.047Z,98619.41
2022-07-25T00:36:18.484Z,98621.09
2022-07-25T00:38:50.714Z,98621.22
2022-07-25T00:41:22.900Z,98622.36
2022-07-25T00:43:55.321Z,98625.70
2022-07-25T00:46:28.304Z,98622.12
2022-07-25T00:49:01.136Z,98625.51
2022-07-25T00:51:37.489Z,98622.52
2022-07-25T00:54:09.709Z,98622.77
2022-07-25T00:56:42.404Z,98623.27
2022-07-25T00:59:16.712Z,98623.62
2022-07-25T01:01:49.430Z,98617.81
2022-07-25T01:04:22.313Z,98611.59
2022-07-25T01:06:54.762Z,98610.60
2022-07-25T01:09:27.737Z,98609.52
2022-07-25T01:12:00.098Z,98610.91
2022-07-25T01:14:32.511Z,98607.70
2022-07-25T01:17:05.600Z,98611.58
2022-07-25T01:19:37.856Z,98612.52
2022-07-25T01:22:12.821Z,98609.33
2022-07-25T01:24:46.600Z,98608.35
2022-07-25T01:27:22.909Z,98602.91
2022-07-25T01:29:55.075Z,98600.88
2022-07-25T01:32:28.274Z,98596.50
2022-07-25T01:35:00.853Z,98602.55
2022-07-25T01:37:33.128Z,98598.04
2022-07-25T01:40:06.259Z,98603.64
2022-07-25T01:42:38.866Z,98606.41
2022-07-25T01:45:13.185Z,98601.27
2022-07-25T01:47:45.306Z,98599.95
2022-07-25T01:50:17.584Z,98602.50
2022-07-25T01:52:49.810Z,98600.88
2022-07-25T01:55:22.075Z,98599.57
2022-07-25T01:57:54.332Z,98595.02
2022-07-25T02:00:26.924Z,98597.50
2022-07-25T02:03:22.130Z,98594.14
2022-07-25T02:05:54.401Z,98591.15
2022-07-25T02:08:26.685Z,98587.63
2022-07-25T02:10:59.799Z,98588.30
2022-07-25T02:13:32.069Z,98589.36
2022-07-25T02:16:04.648Z,98591.02
2022-07-25T02:18:37.043Z,98585.15
2022-07-25T02:21:14.005Z,98589.08
2022-07-25T02:23:50.890Z,98585.17
2022-07-25T02:26:23.341Z,98582.82
2022-07-25T02:28:55.801Z,98585.71
2022-07-25T02:31:28.020Z,98587.33
2022-07-25T02:34:00.288Z,98587.69
2022-07-25T02:36:33.613Z,98582.91
2022-07-25T02:39:06.648Z,98583.09
2022-07-25T02:41:39.023Z,98587.68
2022-07-25T02:44:11.220Z,98592.92
2022-07-25T02:46:43.537Z,98592.44
2022-07-25T02:49:17.422Z,98587.58
2022-07-25T02:51:52.568Z,98587.29
2022-07-25T02:54:25.173Z,98586.91
2022-07-25T02:56:57.400Z,98585.17
2022-07-25T02:59:32.279Z,98586.27
2022-07-25T03:02:04.704Z,98585.30
2022-07-25T03:04:36.923Z,98590.89
2022-07-25T03:07:09.243Z,98585.84
2022-07-25T03:09:42.880Z,98585.04
2022-07-25T03:12:15.442Z,98582.68
2022-07-25T03:14:47.722Z,98582.88
2022-07-25T03:17:20.035Z,98577.41
2022-07-25T03:19:52.205Z,98577.63
2022-07-25T03:22:25.247Z,98574.68
2022-07-25T03:24:57.577Z,98572.02
2022-07-25T03:27:31.383Z,98571.99
2022-07-25T03:30:03.861Z,98569.62
2022-07-25T03:32:36.170Z,98569.29
2022-07-25T03:35:09.961Z,98567.06
2022-07-25T03:37:42.193Z,98569.14
2022-07-25T03:40:16.100Z,98566.52
2022-07-25T03:42:48.957Z,98562.85
2022-07-25T03:45:21.667Z,98559.52
2022-07-25T03:47:56.017Z,98558.19
2022-07-25T03:50:28.877Z,98560.80
2022-07-25T03:53:03.686Z,98562.17
2022-07-25T03:55:36.102Z,98557.60
2022-07-25T03:58:08.411Z,98557.71
2022-07-25T04:00:40.644Z,98559.16
2022-07-25T04:03:13.343Z,98562.04
2022-07-25T04:05:47.723Z,98566.00
2022-07-25T04:08:20.027Z,98570.09
2022-07-25T04:10:54.497Z,98572.23
2022-07-25T04:13:26.708Z,98576.34
2022-07-25T04:15:59.098Z,98578.41
2022-07-25T04:18:33.691Z,98577.08
2022-07-25T04:21:07.681Z,98578.64
2022-07-25T04:23:41.821Z,98573.28
2022-07-25T04:26:14.625Z,98569.44
2022-07-25T04:28:46.855Z,98567.67
2022-07-25T04:31:19.561Z,98569.33
2022-07-25T04:33:51.788Z,98568.61
2022-07-25T04:36:24.106Z,98568.08
2022-07-25T04:38:56.713Z,98560.26
2022-07-25T04:41:29.581Z,98557.73
2022-07-25T04:44:01.809Z,98561.39
2022-07-25T04:46:37.093Z,98558.21
2022-07-25T04:49:09.600Z,98553.34
2022-07-25T04:51:41.831Z,98550.26
2022-07-25T04:54:14.081Z,98552.45
2022-07-25T04:56:46.221Z,98549.41
2022-07-25T04:59:18.395Z,98549.29
2022-07-25T05:01:50.727Z,98544.23
2022-07-25T05:04:25.296Z,98539.36
2022-07-25T05:06:57.723Z,98540.92
2022-07-25T05:09:30.134Z,98541.67
2022-07-25T05:12:02.387Z,98537.63
2022-07-25T05:14:35.263Z,98539.85
2022-07-25T05:17:07.841Z,98541.93
2022-07-25T05:19:40.829Z,98539.19
2022-07-25T05:22:12.977Z,98529.63
2022-07-25T05:24:45.240Z,98527.04
2022-07-25T05:27:18.573Z,98525.29
2022-07-25T05:29:50.918Z,98521.39
2022-07-25T05:32:23.224Z,98518.20
2022-07-25T05:34:55.543Z,98512.82
2022-07-25T05:37:31.116Z,98503.75
2022-07-25T05:40:04.078Z,98503.23
2022-07-25T05:42:36.422Z,98506.22
2022-07-25T05:45:10.347Z,98506.32
2022-07-25T05:47:42.573Z,98503.71
2022-07-25T05:50:14.936Z,98501.99
2022-07-25T05:52:47.903Z,98499.39
2022-07-25T05:55:20.383Z,98497.38
2022-07-25T05:57:52.935Z,98495.45
2022-07-25T06:00:25.313Z,98491.71
2022-07-25T06:03:01.385Z,98493.62
2022-07-25T06:05:33.784Z,98487.75
2022-07-25T06:08:06.323Z,98484.73
2022-07-25T06:10:38.590Z,98480.52
2022-07-25T06:13:15.401Z,98477.08
2022-07-25T06:15:47.682Z,98477.98
2022-07-25T06:18:20.435Z,98479.17
2022-07-25T06:20:52.861Z,98476.09
2022-07-25T06:23:27.770Z,98472.53
2022-07-25T06:26:00.143Z,98469.46
2022-07-25T06:28:33.605Z,98465.52
2022-07-25T06:31:05.880Z,98463.13
2022-07-25T06:33:38.156Z,98462.68
2022-07-25T06:36:11.185Z,98458.34
2022-07-25T06:38:43.389Z,98458.60
2022-07-25T06:41:18.427Z,98454.14
2022-07-25T06:43:50.559Z,98452.58
2022-07-25T06:46:22.739Z,98455.75
2022-07-25T06:48:54.983Z,98450.16
2022-07-25T06:51:27.799Z,98447.63
2022-07-25T06:54:00.300Z,98443.34
2022-07-25T06:56:33.867Z,98440.64
2022-07-25T06:59:06.811Z,98436.51
2022-07-25T07:01:39.566Z,98431.91
2022-07-25T07:04:12.932Z,98429.62
2022-07-25T07:06:45.382Z,98421.16
2022-07-25T07:09:39.469Z,98424.99
2022-07-25T07:12:12.798Z,98422.30
2022-07-25T07:15:03.913Z,98413.80
2022-07-25T07:17:36.819Z,98415.77
2022-07-25T07:20:14.409Z,98411.03
2022-07-25T07:22:51.270Z,98415.40
2022-07-25T07:25:25.022Z,98410.63
2022-07-25T07:28:00.610Z,98408.81
2022-07-25T07:31:05.707Z,98407.98
2022-07-25T07:33:28.698Z,98407.22
2022-07-25T07:36:00.937Z,98404.26
2022-07-25T07:38:33.251Z,98401.23
2022-07-25T07:41:05.405Z,98399.81
2022-07-25T07:43:37.581Z,98396.90
2022-07-25T07:46:09.879Z,98391.64
2022-07-25T07:48:42.227Z,98392.31
2022-07-25T07:51:14.369Z,98389.11
2022-07-25T07:54:04.329Z,98390.05
2022-07-25T07:56:36.553Z,98388.89
2022-07-25T07:59:09.040Z,98383.84
2022-07-25T08:01:41.839Z,98387.41
2022-07-25T08:04:14.097Z,98386.42
2022-07-25T08:06:46.317Z,98385.41
2022-07-25T08:09:18.584Z,98383.14
2022-07-25T08:11:50.760Z,98380.16
2022-07-25T08:14:22.951Z,98379.46
2022-07-25T08:16:57.481Z,98376.90
2022-07-25T08:19:29.631Z,98371.56
2022-07-25T08:22:01.910Z,98372.77
2022-07-25T08:24:34.232Z,98367.77
2022-07-25T08:27:06.579Z,98361.42
2022-07-25T08:29:38.780Z,98355.29
2022-07-25T08:32:10.907Z,98355.93
2022-07-25T08:34:43.578Z,98350.66
2022-07-25T08:37:16.219Z,98345.92
2022-07-25T08:40:02.857Z,98343.20
2022-07-25T08:42:36.262Z,98339.30
2022-07-25T08:45:13.303Z,98339.83
2022-07-25T08:47:45.655Z,98333.15
2022-07-25T08:50:20.071Z,98329.87
2022-07-25T08:53:10.022Z,98330.48
2022-07-25T08:55:47.938Z,98326.61
2022-07-25T08:58:20.760Z,98324.75
2022-07-25T09:00:52.918Z,98322.21
2022-07-25T09:03:25.219Z,98319.55
2022-07-25T09:05:57.451Z,98311.38
2022-07-25T09:08:29.658Z,98309.20
2022-07-25T09:11:01.902Z,98311.59
2022-07-25T09:13:38.617Z,98308.89
2022-07-25T09:16:13.997Z,98299.58
2022-07-25T09:18:47.138Z,98297.09
2022-07-25T09:21:20.033Z,98290.23
2022-07-25T09:23:52.291Z,98288.02
2022-07-25T09:26:24.763Z,98275.24
2022-07-25T09:29:01.037Z,98268.60
2022-07-25T09:31:36.724Z,98261.64
2022-07-25T09:34:10.275Z,98258.39
2022-07-25T09:36:51.645Z,98254.59
2022-07-25T09:39:33.445Z,98249.82
2022-07-25T09:42:15.501Z,98249.08
2022-07-25T09:44:58.327Z,98250.55
2022-07-25T09:47:31.811Z,98248.20
2022-07-25T09:50:06.501Z,98246.50
2022-07-25T09:52:40.585Z,98245.97
2022-07-25T09:55:16.469Z,98238.59
2022-07-25T09:57:52.701Z,98229.29
2022-07-25T10:00:27.594Z,98230.16
2022-07-25T10:03:18.824Z,98216.90
2022-07-25T10:06:03.694Z,98218.69
2022-07-25T10:08:40.917Z,98213.86
2022-07-25T10:11:23.584Z,98215.83
2022-07-25T10:13:56.732Z,98208.45
2022-07-25T10:16:29.679Z,98209.35
2022-07-25T10:19:01.935Z,98202.37
2022-07-25T10:21:36.166Z,98198.92
2022-07-25T10:24:11.007Z,98191.16
2022-07-25T10:26:54.229Z,98183.95
2022-07-25T10:29:36.773Z,98173.37
2022-07-25T10:32:13.786Z,98172.66
2022-07-25T10:34:55.060Z,98167.98
2022-07-25T10:37:32.619Z,98171.80
2022-07-25T10:40:09.564Z,98165.40
2022-07-25T10:42:46.319Z,98156.83
2022-07-25T10:45:20.988Z,98152.64
2022-07-25T10:47:56.959Z,98155.02
2022-07-25T10:50:54.410Z,98151.80
2022-07-25T10:54:08.817Z,98148.31
2022-07-25T11:00:59.474Z,98136.10
2022-07-25T11:06:42.121Z,98130.27
2022-07-25T11:10:13.878Z,98122.56
2022-07-25T11:21:20.229Z,98095.69
2022-07-25T11:23:59.083Z,98087.55
2022-07-25T11:30:39.377Z,98071.05
2022-07-25T11:37:07.343Z,98072.83
2022-07-25T11:39:42.238Z,98074.10
2022-07-25T11:43:09.215Z,98063.61
2022-07-25T11:45:42.086Z,98056.86
2022-07-25T11:48:23.003Z,98056.95
2022-07-25T11:54:36.532Z,98051.27
2022-07-25T11:57:08.987Z,98044.88
2022-07-25T11:59:46.145Z,98034.35
2022-07-25T12:02:26.522Z,98038.45
2022-07-25T12:05:01.201Z,98034.66
2022-07-25T12:07:42.391Z,98035.80
2022-07-25T12:10:21.663Z,98029.72
2022-07-25T12:12:55.638Z,98024.23
2022-07-25T12:15:30.700Z,98027.19
2022-07-25T12:18:03.707Z,98021.77
2022-07-25T12:20:39.820Z,98008.30
2022-07-25T12:23:50.051Z,98003.98
2022-07-25T12:30:56.642Z,97992.32
2022-07-25T12:34:17.891Z,97989.89
2022-07-25T12:36:50.083Z,97992.21
2022-07-25T12:44:11.882Z,97972.40
2022-07-25T12:47:11.480Z,97962.09
2022-07-25T12:49:50.171Z,97958.65
2022-07-25T12:57:13.668Z,97955.81
2022-07-25T12:59:46.134Z,97948.09
2022-07-25T13:02:21.454Z,97946.83
2022-07-25T13:04:53.882Z,97941.24
2022-07-25T13:07:26.082Z,97938.60
2022-07-25T13:09:58.225Z,97934.20
2022-07-25T13:12:30.452Z,97929.21
2022-07-25T13:15:03.377Z,97925.21
2022-07-25T13:17:35.770Z,97920.59
2022-07-25T13:20:09.975Z,97910.09
2022-07-25T13:22:42.689Z,97912.57
2022-07-25T13:25:14.863Z,97908.35
2022-07-25T13:27:48.644Z,97904.92
2022-07-25T13:30:20.944Z,97906.55
2022-07-25T13:32:54.246Z,97901.41
2022-07-25T13:35:33.733Z,97897.32
2022-07-25T13:38:09.869Z,97896.80
2022-07-25T13:40:42.996Z,97894.95
2022-07-25T13:43:16.058Z,97892.40
2022-07-25T13:45:51.834Z,97884.61
2022-07-25T13:48:31.661Z,97887.33
2022-07-25T13:51:04.871Z,97882.92
2022-07-25T13:53:37.289Z,97876.88
2022-07-25T13:56:09.913Z,97865.48
2022-07-25T13:58:43.214Z,97862.36
2022-07-25T14:01:15.868Z,97857.62
2022-07-25T14:03:48.478Z,97850.68
2022-07-25T14:06:21.366Z,97841.88
2022-07-25T14:08:54.816Z,97836.52
2022-07-25T14:11:30.662Z,97840.57
2022-07-25T14:14:03.079Z,97830.52
2022-07-25T14:16:35.530Z,97826.00
2022-07-25T14:19:08.445Z,97822.61
2022-07-25T14:21:43.673Z,97824.06
2022-07-25T14:24:15.856Z,97828.05
2022-07-25T14:26:49.262Z,97820.56
2022-07-25T14:29:21.423Z,97814.45
2022-07-25T14:31:53.827Z,97810.32
2022-07-25T14:34:26.235Z,97813.83
2022-07-25T14:36:58.456Z,97808.46
2022-07-25T14:39:30.956Z,97803.70
2022-07-25T14:42:03.331Z,97800.64
2022-07-25T14:44:35.496Z,97794.14
2022-07-25T14:47:12.583Z,97791.08
2022-07-25T14:49:45.039Z,97793.70
2022-07-25T14:52:17.518Z,97787.90
2022-07-25T14:54:49.944Z,97780.67
2022-07-25T14:57:22.489Z,97782.98
2022-07-25T14:59:55.184Z,97780.56
2022-07-25T15:02:28.144Z,97782.20
2022-07-25T15:05:00.373Z,97778.11
2022-07-25T15:07:33.363Z,97775.92
2022-07-25T15:10:06.183Z,97773.61
2022-07-25T15:12:38.407Z,97770.21
2022-07-25T15:15:11.638Z,97772.48
2022-07-25T15:17:43.991Z,97771.72
2022-07-25T15:20:17.424Z,97762.92
2022-07-25T15:22:49.570Z,97758.73
2022-07-25T15:25:59.592Z,97761.46
2022-07-25T15:28:14.350Z,97751.45
2022-07-25T15:30:48.862Z,97747.56
2022-07-25T15:33:22.249Z,97747.17
2022-07-25T15:35:54.890Z,97751.77
2022-07-25T15:38:27.254Z,97746.56
2022-07-25T15:40:59.650Z,97746.61
2022-07-25T15:43:33.405Z,97746.34
2022-07-25T15:46:11.723Z,97746.34
2022-07-25T15:48:46.208Z,97755.41
2022-07-25T15:51:20.788Z,97747.36
2022-07-25T15:54:34.849Z,97742.91
2022-07-25T15:57:08.383Z,97746.70
2022-07-25T15:59:40.772Z,97746.83
2022-07-25T16:03:08.994Z,97747.45
2022-07-25T16:05:41.711Z,97750.30
2022-07-25T16:08:14.116Z,97755.17
2022-07-25T16:10:47.399Z,97760.35
2022-07-25T16:13:19.703Z,97758.75
2022-07-25T16:16:22.155Z,97762.55
2022-07-25T16:28:06.843Z,97758.96
2022-07-25T16:35:42.518Z,97758.05
2022-07-25T16:38:14.905Z,97753.81
2022-07-25T16:40:54.774Z,97752.98
2022-07-25T16:43:27.102Z,97755.48
2022-07-25T16:46:05.638Z,97751.63
2022-07-25T16:57:35.488Z,97742.14
2022-07-25T17:00:10.020Z,97744.86
2022-07-25T17:02:43.990Z,97740.42
2022-07-25T17:05:24.969Z,97738.42
2022-07-25T17:21:45.062Z,97755.14
2022-07-25T17:29:17.921Z,97770.95
2022-07-25T17:31:50.545Z,97775.59
2022-07-25T17:34:26.958Z,97784.98
2022-07-25T17:37:02.749Z,97794.48
2022-07-25T17:39:36.073Z,97804.25
2022-07-25T17:42:09.054Z,97813.88
2022-07-25T17:44:41.873Z,97814.16
2022-07-25T17:47:14.120Z,97823.55
2022-07-25T17:49:46.578Z,97832.58
2022-07-25T17:52:18.875Z,97833.22
2022-07-25T17:54:51.085Z,97836.92
2022-07-25T17:57:23.410Z,97842.92
2022-07-25T17:59:56.032Z,97850.63
2022-07-25T18:02:29.051Z,97857.38
2022-07-25T18:05:01.315Z,97855.52
2022-07-25T18:07:33.873Z,97856.58
2022-07-25T18:10:07.497Z,97859.91
2022-07-25T18:12:40.067Z,97859.06
2022-07-25T18:15:14.929Z,97855.96
2022-07-25T18:17:48.878Z,97853.20
2022-07-25T18:20:21.334Z,97848.73
2022-07-25T18:22:53.817Z,97844.98
2022-07-25T18:25:29.035Z,97844.13
2022-07-25T18:28:02.229Z,97844.20
2022-07-25T18:30:35.244Z,97840.84
2022-07-25T18:33:08.277Z,97838.90
2022-07-25T18:35:40.665Z,97840.70
2022-07-25T18:38:13.026Z,97836.02
2022-07-25T18:45:55.393Z,97833.46
2022-07-25T18:48:29.089Z,97836.72
2022-07-25T18:51:28.812Z,97835.90
2022-07-25T18:54:08.437Z,97837.10
2022-07-25T18:56:41.144Z,97836.52
2022-07-25T18:59:19.683Z,97836.04
2022-07-25T19:01:52.724Z,97831.73
2022-07-25T19:04:26.115Z,97835.06
2022-07-25T19:07:04.960Z,97830.01
2022-07-25T19:23:21.934Z,97822.70
2022-07-25T19:42:58.148Z,97809.50
2022-07-25T19:45:32.669Z,97811.58
2022-07-25T19:52:36.511Z,97806.52
2022-07-25T19:56:23.670Z,97807.27
2022-07-25T19:59:03.010Z,97803.79
2022-07-25T20:10:49.441Z,97800.46
2022-07-25T20:13:21.957Z,97800.02
2022-07-25T20:16:41.501Z,97793.17
2022-07-25T20:19:14.125Z,97788.19
2022-07-25T20:21:53.594Z,97786.56
2022-07-25T20:24:28.486Z,97795.10
2022-07-25T20:27:56.832Z,97790.36
2022-07-25T20:30:34.409Z,97789.67
2022-07-25T20:34:55.922Z,97789.69
2022-07-25T20:37:34.899Z,97781.70
2022-07-25T20:44:28.832Z,97789.73
2022-07-25T20:47:25.363Z,97791.90
2022-07-25T20:49:57.652Z,97790.15
2022-07-25T20:52:41.591Z,97788.40
2022-07-25T20:59:33.002Z,97793.52
2022-07-25T21:02:05.389Z,97796.17
2022-07-25T21:18:02.590Z,97802.16
2022-07-25T21:20:35.064Z,97805.09
2022-07-25T21:23:09.830Z,97809.61
2022-07-25T21:25:49.726Z,97810.02
2022-07-25T21:33:14.747Z,97813.27
2022-07-25T21:36:36.046Z,97811.52
2022-07-25T21:43:38.187Z,97805.05
2022-07-25T21:46:10.449Z,97804.55
2022-07-25T21:52:52.653Z,97806.91
2022-07-25T21:55:32.318Z,97801.66
2022-07-25T21:58:05.088Z,97798.89
2022-07-25T22:09:49.064Z,97788.69
2022-07-25T22:12:23.804Z,97783.92
2022-07-25T22:15:47.120Z,97778.34
2022-07-25T22:18:19.338Z,97778.25
2022-07-25T22:20:58.118Z,97777.92
2022-07-25T22:23:30.442Z,97771.11
2022-07-25T22:26:09.683Z,97765.52
2022-07-25T22:28:42.135Z,97762.99
2022-07-25T22:31:21.119Z,97764.85
2022-07-25T22:33:53.792Z,97757.52
2022-07-25T22:41:35.965Z,97743.70
2022-07-25T22:44:08.575Z,97741.10
2022-07-25T22:46:40.813Z,97742.67
2022-07-25T22:49:13.576Z,97737.30
2022-07-25T22:51:51.910Z,97736.64
2022-07-25T22:58:55.059Z,97718.41
2022-07-25T23:01:28.060Z,97718.45
2022-07-25T23:04:07.163Z,97715.62
2022-07-25T23:06:39.832Z,97711.15
2022-07-25T23:14:02.827Z,97691.44
2022-07-25T23:21:57.141Z,97684.07
2022-07-25T23:24:38.099Z,97681.79
2022-07-25T23:27:59.943Z,97669.60
2022-07-25T23:30:40.693Z,97663.71
2022-07-25T23:38:03.159Z,97672.09
2022-07-25T23:40:35.525Z,97676.15
2022-07-25T23:44:11.115Z,97676.80
2022-07-25T23:51:16.020Z,97678.94
2022-07-25T23:53:48.510Z,97674.39
2022-07-25T23:56:27.588Z,97669.18
2022-07-25T23:58:59.770Z,97664.59
